createdAt,value
2022-09-23T00:00:24.810Z,78.43
2022-09-23T00:03:31.824Z,78.73
2022-09-23T00:06:34.313Z,78.75
2022-09-23T00:09:37.158Z,78.60
2022-09-23T00:12:39.667Z,78.37
2022-09-23T00:15:42.440Z,78.50
2022-09-23T00:18:45.580Z,78.62
2022-09-23T00:21:48.501Z,78.80
2022-09-23T00:24:51.057Z,78.78
2022-09-23T00:27:54.132Z,79.09
2022-09-23T00:30:56.671Z,79.81
2022-09-23T00:34:01.106Z,81.03
2022-09-23T00:37:03.767Z,81.39
2022-09-23T00:40:08.821Z,81.20
2022-09-23T00:43:15.186Z,81.04
2022-09-23T00:46:40.042Z,80.50
2022-09-23T00:49:43.197Z,80.36
2022-09-23T00:52:46.108Z,80.23
2022-09-23T00:55:52.526Z,80.06
2022-09-23T00:58:55.351Z,79.74
2022-09-23T01:01:59.139Z,79.97
2022-09-23T01:05:04.028Z,79.93
2022-09-23T01:08:07.763Z,79.53
2022-09-23T01:11:26.058Z,78.98
2022-09-23T01:14:41.195Z,78.46
2022-09-23T01:17:53.263Z,78.45
2022-09-23T01:21:16.715Z,78.61
2022-09-23T01:24:38.304Z,78.63
2022-09-23T01:27:41.316Z,78.45
2022-09-23T01:31:07.078Z,78.31
2022-09-23T01:34:24.295Z,78.35
2022-09-23T01:37:37.274Z,78.50
2022-09-23T01:41:17.423Z,78.47
2022-09-23T01:44:27.555Z,78.52
2022-09-23T01:47:35.616Z,78.83
2022-09-23T01:50:56.354Z,79.36
2022-09-23T01:54:25.598Z,78.93
2022-09-23T01:57:32.405Z,78.57
2022-09-23T02:00:40.863Z,78.91
2022-09-23T02:03:48.492Z,78.86
2022-09-23T02:07:02.141Z,79.06
2022-09-23T02:10:36.039Z,79.08
2022-09-23T02:13:50.321Z,78.96
2022-09-23T02:16:56.154Z,78.86
2022-09-23T02:20:02.317Z,78.90
2022-09-23T02:23:19.718Z,78.83
2022-09-23T02:26:35.194Z,79.15
2022-09-23T02:29:44.129Z,79.19
2022-09-23T02:33:04.198Z,79.25
2022-09-23T02:36:12.856Z,78.76
2022-09-23T02:39:17.515Z,78.77
2022-09-23T02:42:23.508Z,78.73
2022-09-23T02:45:26.019Z,78.83
2022-09-23T02:48:41.299Z,78.73
2022-09-23T02:51:44.020Z,78.82
2022-09-23T02:54:46.844Z,78.90
2022-09-23T02:57:49.432Z,78.82
2022-09-23T03:01:18.762Z,78.93
2022-09-23T03:04:40.162Z,79.17
2022-09-23T03:08:15.313Z,78.94
2022-09-23T03:11:18.155Z,79.14
2022-09-23T03:14:40.083Z,79.02
2022-09-23T03:17:51.961Z,78.97
2022-09-23T03:20:59.169Z,79.07
2022-09-23T03:24:05.059Z,79.00
2022-09-23T03:27:13.914Z,79.20
2022-09-23T03:30:18.194Z,79.39
2022-09-23T03:33:26.750Z,79.28
2022-09-23T03:36:51.599Z,79.35
2022-09-23T03:40:00.166Z,79.44
2022-09-23T03:43:04.496Z,79.85
2022-09-23T03:46:08.247Z,80.58
2022-09-23T03:49:15.833Z,80.55
2022-09-23T03:52:20.836Z,80.05
2022-09-23T03:55:23.387Z,79.66
2022-09-23T03:58:26.137Z,79.68
2022-09-23T04:01:29.774Z,79.52
2022-09-23T04:04:34.189Z,79.18
2022-09-23T04:07:39.598Z,79.16
2022-09-23T04:10:42.480Z,78.90
2022-09-23T04:13:44.983Z,78.87
2022-09-23T04:16:48.697Z,78.95
2022-09-23T04:19:51.224Z,79.14
2022-09-23T04:22:53.984Z,80.18
2022-09-23T04:25:56.497Z,80.27
2022-09-23T04:28:59.761Z,79.92
2022-09-23T04:32:02.519Z,79.85
2022-09-23T04:35:06.790Z,79.52
2022-09-23T04:38:12.658Z,79.08
2022-09-23T04:41:16.768Z,79.46
2022-09-23T04:44:20.280Z,79.35
2022-09-23T04:47:23.253Z,79.24
2022-09-23T04:50:26.431Z,79.40
2022-09-23T04:53:29.377Z,79.45
2022-09-23T04:56:32.793Z,79.57
2022-09-23T04:59:35.636Z,80.01
2022-09-23T05:02:45.522Z,80.18
2022-09-23T05:05:48.345Z,80.35
2022-09-23T05:08:52.840Z,80.57
2022-09-23T05:11:55.559Z,81.03
2022-09-23T05:14:58.061Z,81.16
2022-09-23T05:18:02.522Z,81.47
2022-09-23T05:21:05.200Z,81.53
2022-09-23T05:24:08.805Z,81.80
2022-09-23T05:27:11.403Z,82.10
2022-09-23T05:30:14.794Z,82.00
2022-09-23T05:33:17.289Z,82.51
2022-09-23T05:36:21.630Z,82.79
2022-09-23T05:39:24.159Z,83.52
2022-09-23T05:42:28.169Z,83.78
2022-09-23T05:45:32.139Z,84.04
2022-09-23T05:48:35.951Z,84.36
2022-09-23T05:51:38.492Z,85.33
2022-09-23T05:54:41.316Z,84.82
2022-09-23T05:57:43.864Z,84.93
2022-09-23T06:00:46.630Z,85.36
2022-09-23T06:03:49.653Z,85.26
2022-09-23T06:06:53.189Z,86.04
2022-09-23T06:09:56.011Z,86.30
2022-09-23T06:12:58.506Z,87.46
2022-09-23T06:16:02.425Z,87.40
2022-09-23T06:19:06.527Z,87.07
2022-09-23T06:22:10.879Z,88.33
2022-09-23T06:25:13.549Z,88.09
2022-09-23T06:28:16.426Z,87.52
2022-09-23T06:31:18.975Z,86.94
2022-09-23T06:34:21.901Z,86.10
2022-09-23T06:37:24.694Z,85.65
2022-09-23T06:40:27.508Z,86.09
2022-09-23T06:43:30.680Z,85.64
2022-09-23T06:46:33.595Z,84.89
2022-09-23T06:49:36.896Z,84.20
2022-09-23T06:52:39.691Z,84.13
2022-09-23T06:55:43.192Z,83.71
2022-09-23T06:58:46.259Z,82.74
2022-09-23T07:01:50.661Z,83.07
2022-09-23T07:04:57.092Z,81.72
2022-09-23T07:07:59.660Z,81.31
2022-09-23T07:11:05.470Z,81.06
2022-09-23T07:14:07.945Z,79.90
2022-09-23T07:17:12.513Z,80.25
2022-09-23T07:20:17.506Z,78.81
2022-09-23T07:23:20.622Z,78.87
2022-09-23T07:26:23.107Z,78.07
2022-09-23T07:29:26.032Z,77.53
2022-09-23T07:32:33.754Z,77.63
2022-09-23T07:35:42.503Z,76.93
2022-09-23T07:38:46.103Z,76.53
2022-09-23T07:41:49.334Z,76.37
2022-09-23T07:44:52.496Z,74.08
2022-09-23T07:47:55.570Z,74.79
2022-09-23T07:50:59.438Z,73.92
2022-09-23T07:54:02.359Z,73.05
2022-09-23T07:57:05.010Z,73.73
2022-09-23T08:00:09.227Z,72.04
2022-09-23T08:03:15.065Z,71.28
2022-09-23T08:06:17.859Z,70.42
2022-09-23T08:09:22.787Z,70.86
2022-09-23T08:12:25.574Z,69.85
2022-09-23T08:15:28.350Z,68.34
2022-09-23T08:18:31.349Z,67.56
2022-09-23T08:21:34.298Z,67.01
2022-09-23T08:24:37.064Z,65.49
2022-09-23T08:27:40.042Z,65.38
2022-09-23T08:30:44.775Z,64.95
2022-09-23T08:33:47.474Z,64.94
2022-09-23T08:36:52.315Z,64.09
2022-09-23T08:39:54.810Z,64.10
2022-09-23T08:42:57.637Z,62.66
2022-09-23T08:46:04.876Z,62.25
2022-09-23T08:49:12.415Z,61.30
2022-09-23T08:52:24.543Z,60.63
2022-09-23T08:55:34.587Z,59.85
2022-09-23T08:58:43.969Z,60.43
2022-09-23T09:01:52.735Z,59.42
2022-09-23T09:04:59.162Z,59.29
2022-09-23T09:08:03.744Z,58.71
2022-09-23T09:11:06.875Z,59.08
2022-09-23T09:14:30.710Z,57.13
2022-09-23T09:17:49.129Z,57.05
2022-09-23T09:21:09.277Z,57.50
2022-09-23T09:24:23.197Z,56.66
2022-09-23T09:27:26.041Z,56.57
2022-09-23T09:30:28.533Z,57.49
2022-09-23T09:34:03.045Z,55.47
2022-09-23T09:37:11.536Z,55.76
2022-09-23T09:40:17.153Z,54.78
2022-09-23T09:43:26.286Z,54.44
2022-09-23T09:46:34.175Z,54.64
2022-09-23T09:49:49.818Z,54.38
2022-09-23T09:52:58.179Z,53.93
2022-09-23T09:56:05.044Z,53.65
2022-09-23T09:59:11.427Z,51.98
2022-09-23T10:02:21.441Z,52.60
2022-09-23T10:05:32.978Z,51.90
2022-09-23T10:08:36.937Z,51.23
2022-09-23T10:11:40.672Z,52.34
2022-09-23T10:14:43.166Z,52.67
2022-09-23T10:17:50.046Z,52.32
2022-09-23T10:20:52.666Z,49.95
2022-09-23T10:23:58.204Z,49.32
2022-09-23T10:27:09.571Z,50.63
2022-09-23T10:30:15.322Z,51.54
2022-09-23T10:33:27.907Z,52.49
2022-09-23T10:36:32.620Z,51.69
2022-09-23T10:39:53.590Z,52.64
2022-09-23T10:43:46.312Z,51.27
2022-09-23T10:47:24.065Z,50.91
2022-09-23T10:50:33.154Z,52.26
2022-09-23T10:54:01.500Z,52.09
2022-09-23T10:57:34.170Z,50.42
2022-09-23T11:01:25.670Z,51.32
2022-09-23T11:04:51.588Z,49.69
2022-09-23T11:08:28.708Z,49.40
2022-09-23T11:11:50.047Z,49.22
2022-09-23T11:14:59.379Z,47.93
2022-09-23T11:18:17.044Z,47.87
2022-09-23T11:21:28.303Z,48.08
2022-09-23T11:24:36.672Z,47.82
2022-09-23T11:27:49.799Z,47.88
2022-09-23T11:31:10.000Z,47.01
2022-09-23T11:34:27.970Z,46.94
2022-09-23T11:37:36.219Z,47.10
2022-09-23T11:40:43.898Z,47.23
2022-09-23T11:43:53.354Z,46.33
2022-09-23T11:47:09.178Z,47.25
2022-09-23T11:50:20.985Z,45.96
2022-09-23T11:53:34.015Z,46.72
2022-09-23T11:56:45.609Z,46.91
2022-09-23T11:59:58.848Z,47.52
2022-09-23T12:03:17.985Z,47.37
2022-09-23T12:06:23.997Z,45.78
2022-09-23T12:09:57.274Z,46.45
2022-09-23T12:13:05.499Z,46.86
2022-09-23T12:16:40.414Z,46.88
2022-09-23T12:19:52.363Z,47.97
2022-09-23T12:23:26.124Z,46.95
2022-09-23T12:26:29.847Z,47.17
2022-09-23T12:29:33.373Z,46.78
2022-09-23T12:32:36.248Z,47.19
2022-09-23T12:35:42.050Z,47.55
2022-09-23T12:38:53.734Z,46.98
2022-09-23T12:42:19.749Z,48.02
2022-09-23T12:45:32.717Z,47.08
2022-09-23T12:48:59.946Z,48.04
2022-09-23T12:52:30.919Z,48.95
2022-09-23T12:55:33.406Z,47.58
2022-09-23T12:58:42.351Z,48.58
2022-09-23T13:01:45.088Z,47.45
2022-09-23T13:05:42.418Z,47.61
2022-09-23T13:08:46.017Z,46.98
2022-09-23T13:11:49.027Z,47.94
2022-09-23T13:14:54.100Z,47.05
2022-09-23T13:18:18.765Z,48.17
2022-09-23T13:21:51.367Z,46.95
2022-09-23T13:24:54.648Z,46.01
2022-09-23T13:28:00.722Z,46.80
2022-09-23T13:31:11.051Z,46.84
2022-09-23T13:34:15.982Z,47.06
2022-09-23T13:37:24.891Z,46.89
2022-09-23T13:40:28.893Z,48.18
2022-09-23T13:43:38.949Z,46.76
2022-09-23T13:46:53.538Z,46.95
2022-09-23T13:49:56.643Z,48.09
2022-09-23T13:53:07.134Z,49.17
2022-09-23T13:56:14.707Z,50.15
2022-09-23T13:59:23.978Z,49.78
2022-09-23T14:02:28.568Z,48.75
2022-09-23T14:05:34.815Z,48.04
2022-09-23T14:08:40.230Z,48.62
2022-09-23T14:11:43.684Z,49.08
2022-09-23T14:14:46.509Z,48.36
2022-09-23T14:18:14.226Z,47.82
2022-09-23T14:21:35.102Z,48.30
2022-09-23T14:24:38.496Z,48.99
2022-09-23T14:27:42.237Z,48.50
2022-09-23T14:30:48.032Z,47.31
2022-09-23T14:33:50.587Z,47.38
2022-09-23T14:37:12.113Z,46.42
2022-09-23T14:40:21.072Z,46.65
2022-09-23T14:43:28.042Z,47.10
2022-09-23T14:46:34.210Z,46.66
2022-09-23T14:49:36.976Z,46.49
2022-09-23T14:52:49.252Z,46.39
2022-09-23T14:55:54.252Z,46.21
2022-09-23T14:58:59.277Z,46.43
2022-09-23T15:02:24.276Z,46.89
2022-09-23T15:05:44.594Z,46.42
2022-09-23T15:08:48.729Z,46.31
2022-09-23T15:11:53.102Z,46.29
2022-09-23T15:14:56.759Z,44.95
2022-09-23T15:18:18.829Z,45.67
2022-09-23T15:21:23.247Z,46.46
2022-09-23T15:24:42.604Z,46.30
2022-09-23T15:28:11.142Z,45.61
2022-09-23T15:31:15.908Z,46.76
2022-09-23T15:34:21.736Z,46.01
2022-09-23T15:37:24.367Z,45.61
2022-09-23T15:40:34.893Z,47.87
2022-09-23T15:43:39.942Z,47.81
2022-09-23T15:46:47.130Z,47.80
2022-09-23T15:49:49.712Z,48.60
2022-09-23T15:52:52.444Z,49.51
2022-09-23T15:55:55.109Z,50.06
2022-09-23T15:58:58.106Z,51.38
2022-09-23T16:02:05.787Z,51.90
2022-09-23T16:05:26.619Z,53.05
2022-09-23T16:08:30.115Z,53.42
2022-09-23T16:11:32.965Z,54.15
2022-09-23T16:14:35.498Z,53.96
2022-09-23T16:17:38.283Z,54.44
2022-09-23T16:20:43.087Z,55.43
2022-09-23T16:23:47.751Z,55.76
2022-09-23T16:26:50.486Z,56.38
2022-09-23T16:29:53.654Z,56.41
2022-09-23T16:32:56.595Z,56.45
2022-09-23T16:36:02.706Z,56.68
2022-09-23T16:39:07.746Z,56.85
2022-09-23T16:42:10.936Z,56.99
2022-09-23T16:45:16.930Z,57.62
2022-09-23T16:48:19.900Z,57.81
2022-09-23T16:51:26.229Z,58.19
2022-09-23T16:54:28.999Z,58.56
2022-09-23T16:57:31.480Z,59.14
2022-09-23T17:00:53.100Z,59.18
2022-09-23T17:03:55.821Z,59.41
2022-09-23T17:06:59.180Z,59.60
2022-09-23T17:10:01.663Z,59.64
2022-09-23T17:13:04.737Z,60.12
2022-09-23T17:16:07.336Z,60.77
2022-09-23T17:19:11.853Z,60.76
2022-09-23T17:22:14.449Z,60.85
2022-09-23T17:25:17.329Z,62.34
2022-09-23T17:28:20.131Z,61.33
2022-09-23T17:31:24.688Z,61.10
2022-09-23T17:34:28.906Z,61.54
2022-09-23T17:37:32.522Z,62.05
2022-09-23T17:40:38.647Z,62.28
2022-09-23T17:43:41.977Z,62.64
2022-09-23T17:46:44.485Z,62.56
2022-09-23T17:49:49.875Z,62.83
2022-09-23T17:52:52.365Z,62.67
2022-09-23T17:55:59.271Z,62.56
2022-09-23T17:59:02.254Z,63.04
2022-09-23T18:02:05.092Z,62.90
2022-09-23T18:05:08.475Z,62.91
2022-09-23T18:08:10.953Z,63.05
2022-09-23T18:11:21.317Z,63.17
2022-09-23T18:14:24.068Z,63.52
2022-09-23T18:17:26.911Z,63.91
2022-09-23T18:20:29.671Z,64.02
2022-09-23T18:23:32.418Z,64.29
2022-09-23T18:26:35.065Z,64.65
2022-09-23T18:29:37.987Z,64.93
2022-09-23T18:32:40.447Z,65.27
2022-09-23T18:35:43.180Z,65.45
2022-09-23T18:38:46.183Z,66.10
2022-09-23T18:41:49.646Z,65.92
2022-09-23T18:44:56.289Z,66.17
2022-09-23T18:48:17.531Z,66.42
2022-09-23T18:51:21.922Z,66.84
2022-09-23T18:54:27.611Z,67.06
2022-09-23T18:57:30.143Z,67.12
2022-09-23T19:00:34.077Z,67.39
2022-09-23T19:03:37.012Z,67.68
2022-09-23T19:06:40.276Z,67.89
2022-09-23T19:09:42.747Z,68.05
2022-09-23T19:12:46.600Z,68.33
2022-09-23T19:15:49.171Z,68.66
2022-09-23T19:18:52.617Z,68.84
2022-09-23T19:21:55.130Z,68.77
2022-09-23T19:24:59.004Z,68.81
2022-09-23T19:28:02.491Z,68.99
2022-09-23T19:31:13.984Z,69.41
2022-09-23T19:34:18.459Z,69.61
2022-09-23T19:37:23.518Z,69.90
2022-09-23T19:40:26.185Z,70.20
2022-09-23T19:43:29.645Z,70.37
2022-09-23T19:46:34.869Z,70.67
2022-09-23T19:49:37.792Z,70.86
2022-09-23T19:52:42.900Z,71.45
2022-09-23T19:55:45.865Z,71.53
2022-09-23T19:58:55.320Z,71.86
2022-09-23T20:01:58.269Z,72.03
2022-09-23T20:05:01.274Z,72.01
2022-09-23T20:08:05.175Z,72.03
2022-09-23T20:11:11.592Z,72.19
2022-09-23T20:14:14.196Z,72.54
2022-09-23T20:17:21.742Z,72.84
2022-09-23T20:20:24.223Z,73.17
2022-09-23T20:23:28.448Z,73.44
2022-09-23T20:26:49.713Z,73.44
2022-09-23T20:29:52.814Z,73.44
2022-09-23T20:32:55.646Z,73.31
2022-09-23T20:36:00.925Z,73.44
2022-09-23T20:39:07.824Z,73.54
2022-09-23T20:42:10.616Z,73.58
2022-09-23T20:45:13.327Z,73.58
2022-09-23T20:48:16.150Z,73.47
2022-09-23T20:51:18.666Z,73.60
2022-09-23T20:54:22.124Z,73.96
2022-09-23T20:57:24.707Z,74.19
2022-09-23T21:00:27.550Z,74.03
2022-09-23T21:03:31.797Z,74.05
2022-09-23T21:06:35.789Z,74.05
2022-09-23T21:09:45.965Z,74.15
2022-09-23T21:12:52.982Z,74.39
2022-09-23T21:15:55.571Z,74.77
2022-09-23T21:18:58.777Z,75.22
2022-09-23T21:22:01.276Z,75.20
2022-09-23T21:25:26.825Z,75.22
2022-09-23T21:28:30.995Z,75.35
2022-09-23T21:31:36.100Z,75.66
2022-09-23T21:34:38.723Z,75.29
2022-09-23T21:37:41.526Z,75.38
2022-09-23T21:40:56.314Z,75.25
2022-09-23T21:44:00.355Z,75.59
2022-09-23T21:47:02.988Z,75.85
2022-09-23T21:50:06.478Z,76.01
2022-09-23T21:53:09.002Z,75.79
2022-09-23T21:56:19.616Z,75.78
2022-09-23T21:59:23.742Z,75.84
2022-09-23T22:02:27.474Z,75.84
2022-09-23T22:05:30.273Z,76.35
2022-09-23T22:08:36.990Z,76.37
2022-09-23T22:11:58.959Z,76.31
2022-09-23T22:15:01.533Z,76.18
2022-09-23T22:18:05.952Z,76.33
2022-09-23T22:21:08.432Z,76.55
2022-09-23T22:24:12.538Z,76.62
2022-09-23T22:27:18.142Z,76.83
2022-09-23T22:30:39.820Z,76.59
2022-09-23T22:33:42.262Z,76.45
2022-09-23T22:36:45.293Z,76.38
2022-09-23T22:39:48.149Z,76.37
2022-09-23T22:42:50.916Z,76.46
2022-09-23T22:45:53.397Z,76.79
2022-09-23T22:48:56.203Z,76.66
2022-09-23T22:51:59.452Z,76.64
2022-09-23T22:55:03.598Z,76.65
2022-09-23T22:58:27.574Z,76.79
2022-09-23T23:01:32.778Z,76.95
2022-09-23T23:04:37.217Z,76.98
2022-09-23T23:07:40.568Z,77.16
2022-09-23T23:10:43.771Z,77.10
2022-09-23T23:13:46.577Z,77.00
2022-09-23T23:16:49.615Z,77.02
2022-09-23T23:19:52.413Z,77.04
2022-09-23T23:22:54.948Z,76.83
2022-09-23T23:25:57.677Z,77.03
2022-09-23T23:29:01.747Z,77.33
2022-09-23T23:32:05.225Z,77.53
2022-09-23T23:35:08.784Z,77.33
2022-09-23T23:38:12.522Z,77.11
2022-09-23T23:41:17.251Z,76.98
2022-09-23T23:44:20.101Z,76.87
2022-09-23T23:47:23.374Z,76.72
2022-09-23T23:50:26.518Z,77.04
2022-09-23T23:53:31.003Z,77.18
2022-09-23T23:56:33.787Z,77.64
2022-09-23T23:59:36.331Z,77.87
